sensor_id;sensor_type;location;lat;lon;timestamp;P1;durP1;ratioP1;P2;durP2;ratioP2
9280;SDS011;4679;47.966;7.958;2023-04-08T05:22:01;4.63;;;4.23;;
9280;SDS011;4679;47.966;7.958;2023-04-08T05:24:03;5.33;;;4.83;;
9280;SDS011;4679;47.966;7.958;2023-04-08T05:26:05;4.67;;;3.87;;
9280;SDS011;4679;47.966;7.958;2023-04-08T05:28:07;5.13;;;4.13;;
9280;SDS011;4679;47.966;7.958;2023-04-08T05:30:10;3.87;;;3.57;;
9280;SDS011;4679;47.966;7.958;2023-04-08T05:32:12;3.43;;;3.20;;
9280;SDS011;4679;47.966;7.958;2023-04-08T05:34:18;4.33;;;3.93;;
9280;SDS011;4679;47.966;7.958;2023-04-08T05:36:21;3.30;;;3.10;;
9280;SDS011;4679;47.966;7.958;2023-04-08T05:38:24;3.77;;;2.90;;
9280;SDS011;4679;47.966;7.958;2023-04-08T05:40:26;3.13;;;2.93;;
9280;SDS011;4679;47.966;7.958;2023-04-08T05:42:28;3.30;;;3.00;;
9280;SDS011;4679;47.966;7.958;2023-04-08T05:44:31;4.27;;;3.73;;
9280;SDS011;4679;47.966;7.958;2023-04-08T05:46:32;4.37;;;3.10;;
9280;SDS011;4679;47.966;7.958;2023-04-08T05:48:34;5.80;;;3.20;;
9280;SDS011;4679;47.966;7.958;2023-04-08T05:50:36;4.07;;;3.73;;
9280;SDS011;4679;47.966;7.958;2023-04-08T05:52:40;3.80;;;3.50;;
9280;SDS011;4679;47.966;7.958;2023-04-08T05:54:44;4.03;;;3.67;;
9280;SDS011;4679;47.966;7.958;2023-04-08T05:56:46;3.63;;;2.93;;
9280;SDS011;4679;47.966;7.958;2023-04-08T05:58:48;3.00;;;2.80;;
9280;SDS011;4679;47.966;7.958;2023-04-08T06:00:49;3.00;;;2.80;;
9280;SDS011;4679;47.966;7.958;2023-04-08T06:02:51;3.43;;;3.13;;
9280;SDS011;4679;47.966;7.958;2023-04-08T06:04:53;2.77;;;2.57;;
9280;SDS011;4679;47.966;7.958;2023-04-08T06:06:54;3.20;;;3.00;;
9280;SDS011;4679;47.966;7.958;2023-04-08T06:08:58;3.43;;;3.13;;
9280;SDS011;4679;47.966;7.958;2023-04-08T06:11:01;3.47;;;3.17;;
9280;SDS011;4679;47.966;7.958;2023-04-08T06:13:04;2.90;;;2.70;;
9280;SDS011;4679;47.966;7.958;2023-04-08T06:15:06;2.70;;;2.50;;
9280;SDS011;4679;47.966;7.958;2023-04-08T06:17:08;5.17;;;2.80;;
9280;SDS011;4679;47.966;7.958;2023-04-08T06:19:10;3.97;;;2.77;;
9280;SDS011;4679;47.966;7.958;2023-04-08T06:21:12;2.93;;;2.60;;
9280;SDS011;4679;47.966;7.958;2023-04-08T06:23:13;5.93;;;3.60;;
9280;SDS011;4679;47.966;7.958;2023-04-08T06:25:15;4.10;;;3.40;;
9280;SDS011;4679;47.966;7.958;2023-04-08T06:27:18;3.43;;;3.13;;
9280;SDS011;4679;47.966;7.958;2023-04-08T06:29:20;4.10;;;3.37;;
9280;SDS011;4679;47.966;7.958;2023-04-08T06:31:22;3.33;;;2.90;;
9280;SDS011;4679;47.966;7.958;2023-04-08T06:33:23;4.10;;;3.20;;
9280;SDS011;4679;47.966;7.958;2023-04-08T06:35:25;2.40;;;2.20;;
9280;SDS011;4679;47.966;7.958;2023-04-08T06:37:27;2.10;;;1.97;;
9280;SDS011;4679;47.966;7.958;2023-04-08T06:39:28;3.17;;;2.43;;
9280;SDS011;4679;47.966;7.958;2023-04-08T06:41:30;2.83;;;2.63;;
9280;SDS011;4679;47.966;7.958;2023-04-08T06:43:33;2.63;;;2.40;;
9280;SDS011;4679;47.966;7.958;2023-04-08T06:45:36;3.30;;;2.90;;
9280;SDS011;4679;47.966;7.958;2023-04-08T06:47:38;3.60;;;2.37;;
9280;SDS011;4679;47.966;7.958;2023-04-08T06:49:40;2.57;;;2.37;;
9280;SDS011;4679;47.966;7.958;2023-04-08T06:51:41;2.10;;;2.00;;
9280;SDS011;4679;47.966;7.958;2023-04-08T06:53:43;2.60;;;2.30;;
9280;SDS011;4679;47.966;7.958;2023-04-08T06:55:44;2.60;;;2.40;;
9280;SDS011;4679;47.966;7.958;2023-04-08T06:57:46;2.30;;;2.10;;
9280;SDS011;4679;47.966;7.958;2023-04-08T06:59:49;2.97;;;2.63;;
9280;SDS011;4679;47.966;7.958;2023-04-08T07:01:52;2.60;;;2.40;;
9280;SDS011;4679;47.966;7.958;2023-04-08T07:03:54;3.03;;;2.83;;
9280;SDS011;4679;47.966;7.958;2023-04-08T07:05:55;2.80;;;2.50;;
9280;SDS011;4679;47.966;7.958;2023-04-08T07:07:57;2.27;;;2.07;;
9280;SDS011;4679;47.966;7.958;2023-04-08T07:09:59;2.60;;;2.40;;
9280;SDS011;4679;47.966;7.958;2023-04-08T07:12:00;2.70;;;2.50;;
9280;SDS011;4679;47.966;7.958;2023-04-08T07:14:03;2.27;;;2.00;;
9280;SDS011;4679;47.966;7.958;2023-04-08T07:16:06;3.03;;;2.83;;
9280;SDS011;4679;47.966;7.958;2023-04-08T07:18:07;2.70;;;2.50;;
9280;SDS011;4679;47.966;7.958;2023-04-08T07:20:10;3.03;;;2.73;;
9280;SDS011;4679;47.966;7.958;2023-04-08T07:22:12;2.13;;;2.03;;
9280;SDS011;4679;47.966;7.958;2023-04-08T07:24:15;2.83;;;2.63;;
9280;SDS011;4679;47.966;7.958;2023-04-08T07:26:17;3.03;;;2.53;;
9280;SDS011;4679;47.966;7.958;2023-04-08T07:28:19;3.10;;;2.43;;
9280;SDS011;4679;47.966;7.958;2023-04-08T07:30:20;2.37;;;2.17;;
9280;SDS011;4679;47.966;7.958;2023-04-08T07:32:23;2.57;;;2.37;;
9280;SDS011;4679;47.966;7.958;2023-04-08T07:34:25;3.00;;;2.80;;
9280;SDS011;4679;47.966;7.958;2023-04-08T07:36:27;2.60;;;2.50;;
9280;SDS011;4679;47.966;7.958;2023-04-08T07:38:29;3.27;;;2.77;;
9280;SDS011;4679;47.966;7.958;2023-04-08T07:40:30;2.73;;;2.53;;
9280;SDS011;4679;47.966;7.958;2023-04-08T07:42:32;2.50;;;2.17;;
9280;SDS011;4679;47.966;7.958;2023-04-08T07:44:34;2.23;;;2.03;;
9280;SDS011;4679;47.966;7.958;2023-04-08T07:46:36;2.20;;;2.00;;
9280;SDS011;4679;47.966;7.958;2023-04-08T07:48:39;1.90;;;1.80;;
9280;SDS011;4679;47.966;7.958;2023-04-08T07:50:41;3.30;;;2.03;;
9280;SDS011;4679;47.966;7.958;2023-04-08T07:52:44;2.20;;;2.00;;
9280;SDS011;4679;47.966;7.958;2023-04-08T07:54:46;1.90;;;1.80;;
9280;SDS011;4679;47.966;7.958;2023-04-08T07:56:47;1.93;;;1.83;;
9280;SDS011;4679;47.966;7.958;2023-04-08T07:58:49;1.77;;;1.67;;
9280;SDS011;4679;47.966;7.958;2023-04-08T08:00:51;1.80;;;1.70;;
9280;SDS011;4679;47.966;7.958;2023-04-08T08:02:53;1.83;;;1.70;;
9280;SDS011;4679;47.966;7.958;2023-04-08T08:04:56;1.93;;;1.83;;
9280;SDS011;4679;47.966;7.958;2023-04-08T08:06:57;2.40;;;2.20;;
9280;SDS011;4679;47.966;7.958;2023-04-08T08:08:59;3.37;;;2.20;;
9280;SDS011;4679;47.966;7.958;2023-04-08T08:11:01;2.10;;;1.90;;
9280;SDS011;4679;47.966;7.958;2023-04-08T08:13:02;2.43;;;2.23;;
9280;SDS011;4679;47.966;7.958;2023-04-08T08:15:04;2.13;;;1.97;;
9280;SDS011;4679;47.966;7.958;2023-04-08T08:17:07;2.50;;;2.30;;
9280;SDS011;4679;47.966;7.958;2023-04-08T08:19:08;2.50;;;2.30;;
9280;SDS011;4679;47.966;7.958;2023-04-08T08:21:12;2.80;;;2.60;;
9280;SDS011;4679;47.966;7.958;2023-04-08T08:23:15;3.03;;;2.40;;
9280;SDS011;4679;47.966;7.958;2023-04-08T08:25:16;3.53;;;2.53;;
9280;SDS011;4679;47.966;7.958;2023-04-08T08:27:18;2.40;;;2.20;;
9280;SDS011;4679;47.966;7.958;2023-04-08T08:29:20;2.10;;;2.00;;
9280;SDS011;4679;47.966;7.958;2023-04-08T08:31:22;2.40;;;2.20;;
9280;SDS011;4679;47.966;7.958;2023-04-08T08:33:23;2.97;;;2.60;;
9280;SDS011;4679;47.966;7.958;2023-04-08T08:35:25;3.03;;;2.70;;
9280;SDS011;4679;47.966;7.958;2023-04-08T08:37:28;2.50;;;2.30;;
9280;SDS011;4679;47.966;7.958;2023-04-08T08:39:30;2.90;;;2.70;;
9280;SDS011;4679;47.966;7.958;2023-04-08T08:41:32;3.00;;;2.80;;
9280;SDS011;4679;47.966;7.958;2023-04-08T08:43:35;2.77;;;2.57;;
9280;SDS011;4679;47.966;7.958;2023-04-08T08:45:38;4.27;;;2.60;;
9280;SDS011;4679;47.966;7.958;2023-04-08T08:47:40;3.57;;;2.50;;
9280;SDS011;4679;47.966;7.958;2023-04-08T08:49:42;3.37;;;2.37;;
9280;SDS011;4679;47.966;7.958;2023-04-08T08:51:44;3.10;;;2.80;;
9280;SDS011;4679;47.966;7.958;2023-04-08T08:53:47;3.70;;;3.40;;
9280;SDS011;4679;47.966;7.958;2023-04-08T08:55:49;3.00;;;2.80;;
9280;SDS011;4679;47.966;7.958;2023-04-08T08:57:51;3.33;;;3.13;;
9280;SDS011;4679;47.966;7.958;2023-04-08T08:59:53;3.80;;;3.50;;
9280;SDS011;4679;47.966;7.958;2023-04-08T09:01:55;3.33;;;3.03;;
9280;SDS011;4679;47.966;7.958;2023-04-08T09:04:06;2.70;;;2.50;;
9280;SDS011;4679;47.966;7.958;2023-04-08T09:06:09;2.80;;;2.60;;
9280;SDS011;4679;47.966;7.958;2023-04-08T09:08:21;3.07;;;2.80;;
9280;SDS011;4679;47.966;7.958;2023-04-08T09:10:26;4.03;;;2.90;;
9280;SDS011;4679;47.966;7.958;2023-04-08T09:12:29;3.50;;;3.30;;
9280;SDS011;4679;47.966;7.958;2023-04-08T09:14:30;4.37;;;4.07;;
9280;SDS011;4679;47.966;7.958;2023-04-08T09:16:33;3.33;;;3.03;;
9280;SDS011;4679;47.966;7.958;2023-04-08T09:18:34;2.63;;;2.43;;
9280;SDS011;4679;47.966;7.958;2023-04-08T09:20:37;3.00;;;2.80;;
9280;SDS011;4679;47.966;7.958;2023-04-08T09:22:55;2.33;;;2.13;;
9280;SDS011;4679;47.966;7.958;2023-04-08T09:24:58;3.63;;;2.37;;
9280;SDS011;4679;47.966;7.958;2023-04-08T09:27:01;2.20;;;2.10;;
9280;SDS011;4679;47.966;7.958;2023-04-08T09:29:04;2.33;;;2.13;;
9280;SDS011;4679;47.966;7.958;2023-04-08T09:31:17;2.30;;;2.20;;
9280;SDS011;4679;47.966;7.958;2023-04-08T09:33:20;2.87;;;2.50;;
9280;SDS011;4679;47.966;7.958;2023-04-08T09:35:30;2.40;;;2.20;;
9280;SDS011;4679;47.966;7.958;2023-04-08T09:37:32;3.23;;;2.93;;
9280;SDS011;4679;47.966;7.958;2023-04-08T09:39:33;2.80;;;2.60;;
9280;SDS011;4679;47.966;7.958;2023-04-08T09:41:36;2.73;;;2.60;;
9280;SDS011;4679;47.966;7.958;2023-04-08T09:43:40;3.83;;;2.73;;
9280;SDS011;4679;47.966;7.958;2023-04-08T09:45:47;4.33;;;3.17;;
9280;SDS011;4679;47.966;7.958;2023-04-08T09:47:54;4.27;;;3.37;;
9280;SDS011;4679;47.966;7.958;2023-04-08T09:50:00;6.77;;;3.50;;
9280;SDS011;4679;47.966;7.958;2023-04-08T09:52:05;4.13;;;3.60;;
9280;SDS011;4679;47.966;7.958;2023-04-08T09:54:10;3.43;;;3.23;;
9280;SDS011;4679;47.966;7.958;2023-04-08T09:56:14;3.90;;;3.60;;
9280;SDS011;4679;47.966;7.958;2023-04-08T09:58:20;3.13;;;2.93;;
9280;SDS011;4679;47.966;7.958;2023-04-08T10:00:29;3.83;;;3.53;;
9280;SDS011;4679;47.966;7.958;2023-04-08T10:02:35;3.90;;;3.53;;
9280;SDS011;4679;47.966;7.958;2023-04-08T10:04:45;4.80;;;4.40;;
9280;SDS011;4679;47.966;7.958;2023-04-08T10:06:53;3.47;;;3.17;;
9280;SDS011;4679;47.966;7.958;2023-04-08T10:08:58;4.10;;;3.80;;
9280;SDS011;4679;47.966;7.958;2023-04-08T10:11:03;3.97;;;3.67;;
9280;SDS011;4679;47.966;7.958;2023-04-08T10:13:05;4.73;;;3.57;;
9280;SDS011;4679;47.966;7.958;2023-04-08T10:15:23;3.53;;;3.23;;
9280;SDS011;4679;47.966;7.958;2023-04-08T10:17:27;3.37;;;3.03;;
9280;SDS011;4679;47.966;7.958;2023-04-08T10:19:35;3.43;;;3.23;;
9280;SDS011;4679;47.966;7.958;2023-04-08T10:21:40;4.57;;;3.40;;
9280;SDS011;4679;47.966;7.958;2023-04-08T10:23:53;4.97;;;3.30;;
9280;SDS011;4679;47.966;7.958;2023-04-08T10:25:58;3.33;;;3.03;;
9280;SDS011;4679;47.966;7.958;2023-04-08T10:28:00;3.07;;;2.87;;
9280;SDS011;4679;47.966;7.958;2023-04-08T10:30:03;3.00;;;2.80;;
9280;SDS011;4679;47.966;7.958;2023-04-08T10:32:42;3.10;;;2.87;;
9280;SDS011;4679;47.966;7.958;2023-04-08T10:34:50;2.13;;;2.03;;
9280;SDS011;4679;47.966;7.958;2023-04-08T10:36:53;2.67;;;2.43;;
9280;SDS011;4679;47.966;7.958;2023-04-08T10:38:57;3.13;;;2.70;;
9280;SDS011;4679;47.966;7.958;2023-04-08T10:40:59;4.10;;;3.03;;
9280;SDS011;4679;47.966;7.958;2023-04-08T10:43:01;3.23;;;2.97;;
9280;SDS011;4679;47.966;7.958;2023-04-08T10:45:04;2.87;;;2.53;;
9280;SDS011;4679;47.966;7.958;2023-04-08T10:47:07;2.57;;;2.23;;
9280;SDS011;4679;47.966;7.958;2023-04-08T10:49:10;2.50;;;2.10;;
9280;SDS011;4679;47.966;7.958;2023-04-08T10:51:12;2.40;;;2.20;;
9280;SDS011;4679;47.966;7.958;2023-04-08T10:53:14;2.10;;;1.90;;
9280;SDS011;4679;47.966;7.958;2023-04-08T10:55:20;2.67;;;2.47;;
9280;SDS011;4679;47.966;7.958;2023-04-08T10:57:23;1.90;;;1.80;;
9280;SDS011;4679;47.966;7.958;2023-04-08T10:59:26;2.30;;;2.10;;
9280;SDS011;4679;47.966;7.958;2023-04-08T11:01:36;2.03;;;1.93;;
9280;SDS011;4679;47.966;7.958;2023-04-08T11:03:40;2.40;;;2.20;;
9280;SDS011;4679;47.966;7.958;2023-04-08T11:05:44;1.90;;;1.80;;
9280;SDS011;4679;47.966;7.958;2023-04-08T11:07:46;1.87;;;1.77;;
9280;SDS011;4679;47.966;7.958;2023-04-08T11:09:48;2.10;;;1.80;;
9280;SDS011;4679;47.966;7.958;2023-04-08T11:11:51;2.30;;;2.10;;
9280;SDS011;4679;47.966;7.958;2023-04-08T11:13:52;2.27;;;2.07;;
9280;SDS011;4679;47.966;7.958;2023-04-08T11:15:57;5.03;;;2.73;;
9280;SDS011;4679;47.966;7.958;2023-04-08T11:18:00;3.20;;;2.90;;
9280;SDS011;4679;47.966;7.958;2023-04-08T11:20:03;3.07;;;2.87;;
9280;SDS011;4679;47.966;7.958;2023-04-08T11:22:07;3.47;;;3.17;;
9280;SDS011;4679;47.966;7.958;2023-04-08T11:24:10;3.43;;;3.17;;
9280;SDS011;4679;47.966;7.958;2023-04-08T11:26:12;4.67;;;3.17;;
9280;SDS011;4679;47.966;7.958;2023-04-08T11:28:15;3.73;;;3.43;;
9280;SDS011;4679;47.966;7.958;2023-04-08T11:30:17;3.40;;;3.10;;
9280;SDS011;4679;47.966;7.958;2023-04-08T11:32:19;3.27;;;2.87;;
9280;SDS011;4679;47.966;7.958;2023-04-08T11:34:21;4.00;;;2.97;;
9280;SDS011;4679;47.966;7.958;2023-04-08T11:36:23;3.13;;;2.90;;
9280;SDS011;4679;47.966;7.958;2023-04-08T11:38:27;3.57;;;3.27;;
9280;SDS011;4679;47.966;7.958;2023-04-08T11:40:29;3.60;;;3.30;;
9280;SDS011;4679;47.966;7.958;2023-04-08T11:42:31;3.50;;;3.20;;
9280;SDS011;4679;47.966;7.958;2023-04-08T11:44:33;3.07;;;2.77;;
9280;SDS011;4679;47.966;7.958;2023-04-08T11:46:35;2.77;;;2.47;;
9280;SDS011;4679;47.966;7.958;2023-04-08T11:48:37;2.70;;;2.30;;
9280;SDS011;4679;47.966;7.958;2023-04-08T11:50:39;2.63;;;2.43;;
9280;SDS011;4679;47.966;7.958;2023-04-08T11:52:42;2.07;;;1.97;;
9280;SDS011;4679;47.966;7.958;2023-04-08T11:54:47;2.63;;;2.10;;
9280;SDS011;4679;47.966;7.958;2023-04-08T11:56:49;2.53;;;2.07;;
9280;SDS011;4679;47.966;7.958;2023-04-08T11:58:52;2.33;;;2.23;;
9280;SDS011;4679;47.966;7.958;2023-04-08T12:00:54;2.70;;;2.50;;
9280;SDS011;4679;47.966;7.958;2023-04-08T12:02:55;3.00;;;2.73;;
9280;SDS011;4679;47.966;7.958;2023-04-08T12:04:57;3.10;;;2.87;;
9280;SDS011;4679;47.966;7.958;2023-04-08T12:06:59;3.13;;;2.83;;
9280;SDS011;4679;47.966;7.958;2023-04-08T12:09:01;2.93;;;2.70;;
9280;SDS011;4679;47.966;7.958;2023-04-08T12:11:04;3.50;;;3.20;;
9280;SDS011;4679;47.966;7.958;2023-04-08T12:13:06;4.17;;;3.77;;
9280;SDS011;4679;47.966;7.958;2023-04-08T12:15:08;5.40;;;4.90;;
9280;SDS011;4679;47.966;7.958;2023-04-08T12:17:10;5.70;;;4.17;;
9280;SDS011;4679;47.966;7.958;2023-04-08T12:19:12;3.80;;;3.47;;
9280;SDS011;4679;47.966;7.958;2023-04-08T12:21:14;3.80;;;3.50;;
9280;SDS011;4679;47.966;7.958;2023-04-08T12:23:15;4.60;;;4.20;;
9280;SDS011;4679;47.966;7.958;2023-04-08T12:25:17;9.23;;;6.80;;
9280;SDS011;4679;47.966;7.958;2023-04-08T12:27:20;5.17;;;4.67;;
9280;SDS011;4679;47.966;7.958;2023-04-08T12:29:22;4.37;;;4.07;;
9280;SDS011;4679;47.966;7.958;2023-04-08T12:31:23;5.17;;;3.77;;
9280;SDS011;4679;47.966;7.958;2023-04-08T12:33:26;4.23;;;3.93;;
9280;SDS011;4679;47.966;7.958;2023-04-08T12:35:28;3.87;;;3.57;;
9280;SDS011;4679;47.966;7.958;2023-04-08T12:37:30;5.03;;;4.63;;
9280;SDS011;4679;47.966;7.958;2023-04-08T12:39:32;3.97;;;3.67;;
9280;SDS011;4679;47.966;7.958;2023-04-08T12:41:34;7.33;;;3.97;;
9280;SDS011;4679;47.966;7.958;2023-04-08T12:43:37;3.73;;;3.37;;
9280;SDS011;4679;47.966;7.958;2023-04-08T12:45:39;3.50;;;3.20;;
9280;SDS011;4679;47.966;7.958;2023-04-08T12:47:40;4.03;;;3.73;;
9280;SDS011;4679;47.966;7.958;2023-04-08T12:49:42;3.53;;;3.07;;
9280;SDS011;4679;47.966;7.958;2023-04-08T12:51:44;3.30;;;3.03;;
9280;SDS011;4679;47.966;7.958;2023-04-08T12:53:45;3.90;;;3.07;;
9280;SDS011;4679;47.966;7.958;2023-04-08T12:55:47;3.47;;;3.27;;
9280;SDS011;4679;47.966;7.958;2023-04-08T12:57:50;2.33;;;2.00;;
9280;SDS011;4679;47.966;7.958;2023-04-08T12:59:53;3.87;;;2.67;;
9280;SDS011;4679;47.966;7.958;2023-04-08T13:01:55;3.60;;;2.87;;
9280;SDS011;4679;47.966;7.958;2023-04-08T13:03:56;2.80;;;2.60;;
9280;SDS011;4679;47.966;7.958;2023-04-08T13:05:58;2.47;;;2.27;;
9280;SDS011;4679;47.966;7.958;2023-04-08T13:08:00;2.77;;;2.50;;
9280;SDS011;4679;47.966;7.958;2023-04-08T13:10:02;2.43;;;2.23;;
9280;SDS011;4679;47.966;7.958;2023-04-08T13:12:06;2.70;;;2.50;;
9280;SDS011;4679;47.966;7.958;2023-04-08T13:14:08;3.10;;;2.80;;
9280;SDS011;4679;47.966;7.958;2023-04-08T13:16:11;2.60;;;2.40;;
9280;SDS011;4679;47.966;7.958;2023-04-08T13:18:13;2.70;;;2.50;;
9280;SDS011;4679;47.966;7.958;2023-04-08T13:20:15;3.27;;;2.93;;
9280;SDS011;4679;47.966;7.958;2023-04-08T13:22:16;2.27;;;2.17;;
9280;SDS011;4679;47.966;7.958;2023-04-08T13:24:18;2.13;;;1.90;;
9280;SDS011;4679;47.966;7.958;2023-04-08T13:26:20;3.10;;;2.20;;
9280;SDS011;4679;47.966;7.958;2023-04-08T13:28:22;3.77;;;2.70;;
9280;SDS011;4679;47.966;7.958;2023-04-08T13:30:24;2.10;;;2.00;;
9280;SDS011;4679;47.966;7.958;2023-04-08T13:32:27;2.00;;;1.80;;
9280;SDS011;4679;47.966;7.958;2023-04-08T13:34:28;2.90;;;2.70;;
9280;SDS011;4679;47.966;7.958;2023-04-08T13:36:30;2.17;;;2.00;;
9280;SDS011;4679;47.966;7.958;2023-04-08T13:38:32;2.67;;;2.47;;
9280;SDS011;4679;47.966;7.958;2023-04-08T13:40:33;2.20;;;1.80;;
9280;SDS011;4679;47.966;7.958;2023-04-08T13:42:35;2.20;;;1.83;;
9280;SDS011;4679;47.966;7.958;2023-04-08T13:44:37;2.13;;;1.93;;
9280;SDS011;4679;47.966;7.958;2023-04-08T13:46:39;2.00;;;1.90;;
9280;SDS011;4679;47.966;7.958;2023-04-08T13:48:43;2.10;;;2.00;;
9280;SDS011;4679;47.966;7.958;2023-04-08T13:50:45;2.27;;;2.07;;
9280;SDS011;4679;47.966;7.958;2023-04-08T13:52:47;2.10;;;2.00;;
9280;SDS011;4679;47.966;7.958;2023-04-08T13:54:48;3.30;;;1.50;;
9280;SDS011;4679;47.966;7.958;2023-04-08T13:56:50;1.30;;;1.20;;
9280;SDS011;4679;47.966;7.958;2023-04-08T13:58:52;1.67;;;1.27;;
9280;SDS011;4679;47.966;7.958;2023-04-08T14:00:53;1.43;;;1.30;;
9280;SDS011;4679;47.966;7.958;2023-04-08T14:02:55;1.47;;;1.40;;
9280;SDS011;4679;47.966;7.958;2023-04-08T14:04:58;1.70;;;1.60;;
9280;SDS011;4679;47.966;7.958;2023-04-08T14:07:00;1.57;;;1.47;;
9280;SDS011;4679;47.966;7.958;2023-04-08T14:09:01;1.70;;;1.30;;
9280;SDS011;4679;47.966;7.958;2023-04-08T14:11:03;1.50;;;1.40;;
9280;SDS011;4679;47.966;7.958;2023-04-08T14:13:05;1.60;;;1.50;;
9280;SDS011;4679;47.966;7.958;2023-04-08T14:15:07;1.63;;;1.50;;
9280;SDS011;4679;47.966;7.958;2023-04-08T14:17:10;1.63;;;1.53;;
9280;SDS011;4679;47.966;7.958;2023-04-08T14:19:11;2.17;;;1.50;;
9280;SDS011;4679;47.966;7.958;2023-04-08T14:21:15;2.00;;;1.90;;
9280;SDS011;4679;47.966;7.958;2023-04-08T14:23:17;1.87;;;1.70;;
9280;SDS011;4679;47.966;7.958;2023-04-08T14:25:18;2.30;;;2.07;;
9280;SDS011;4679;47.966;7.958;2023-04-08T14:27:20;2.40;;;2.20;;
9280;SDS011;4679;47.966;7.958;2023-04-08T14:29:22;1.80;;;1.40;;
9280;SDS011;4679;47.966;7.958;2023-04-08T14:31:23;2.67;;;1.87;;
9280;SDS011;4679;47.966;7.958;2023-04-08T14:33:25;2.60;;;2.37;;
9280;SDS011;4679;47.966;7.958;2023-04-08T14:35:27;4.33;;;2.23;;
9280;SDS011;4679;47.966;7.958;2023-04-08T14:37:30;3.00;;;2.47;;
9280;SDS011;4679;47.966;7.958;2023-04-08T14:39:33;3.10;;;2.40;;
9280;SDS011;4679;47.966;7.958;2023-04-08T14:41:35;13.50;;;3.70;;
9280;SDS011;4679;47.966;7.958;2023-04-08T14:43:36;4.67;;;3.00;;
9280;SDS011;4679;47.966;7.958;2023-04-08T14:45:38;2.77;;;2.20;;
9280;SDS011;4679;47.966;7.958;2023-04-08T14:47:40;1.87;;;1.77;;
9280;SDS011;4679;47.966;7.958;2023-04-08T14:49:41;2.70;;;2.50;;
9280;SDS011;4679;47.966;7.958;2023-04-08T14:51:43;3.07;;;2.87;;
9280;SDS011;4679;47.966;7.958;2023-04-08T14:53:46;2.90;;;2.70;;
9280;SDS011;4679;47.966;7.958;2023-04-08T14:55:48;5.27;;;3.23;;
9280;SDS011;4679;47.966;7.958;2023-04-08T14:57:50;4.00;;;3.07;;
9280;SDS011;4679;47.966;7.958;2023-04-08T14:59:51;3.00;;;2.80;;
9280;SDS011;4679;47.966;7.958;2023-04-08T15:01:53;3.37;;;3.07;;
9280;SDS011;4679;47.966;7.958;2023-04-08T15:03:55;3.10;;;2.90;;
9280;SDS011;4679;47.966;7.958;2023-04-08T15:05:56;3.67;;;3.37;;
9280;SDS011;4679;47.966;7.958;2023-04-08T15:07:59;3.70;;;3.50;;
9280;SDS011;4679;47.966;7.958;2023-04-08T15:10:02;3.47;;;3.27;;
9280;SDS011;4679;47.966;7.958;2023-04-08T15:12:04;4.70;;;2.90;;
9280;SDS011;4679;47.966;7.958;2023-04-08T15:14:06;3.60;;;3.30;;
9280;SDS011;4679;47.966;7.958;2023-04-08T15:16:07;3.97;;;3.57;;
9280;SDS011;4679;47.966;7.958;2023-04-08T15:18:09;3.20;;;3.00;;
9280;SDS011;4679;47.966;7.958;2023-04-08T15:20:11;3.30;;;2.90;;
9280;SDS011;4679;47.966;7.958;2023-04-08T15:22:13;2.97;;;2.77;;
9280;SDS011;4679;47.966;7.958;2023-04-08T15:24:15;3.43;;;2.70;;
9280;SDS011;4679;47.966;7.958;2023-04-08T15:26:19;2.77;;;2.57;;
9280;SDS011;4679;47.966;7.958;2023-04-08T15:28:21;3.20;;;3.00;;
9280;SDS011;4679;47.966;7.958;2023-04-08T15:30:23;3.63;;;3.33;;
9280;SDS011;4679;47.966;7.958;2023-04-08T15:32:25;2.23;;;2.10;;
9280;SDS011;4679;47.966;7.958;2023-04-08T15:34:27;2.53;;;2.33;;
9280;SDS011;4679;47.966;7.958;2023-04-08T15:36:29;2.83;;;2.63;;
9280;SDS011;4679;47.966;7.958;2023-04-08T15:38:31;2.67;;;2.43;;
9280;SDS011;4679;47.966;7.958;2023-04-08T15:40:33;1.90;;;1.80;;
9280;SDS011;4679;47.966;7.958;2023-04-08T15:42:36;2.53;;;2.27;;
9280;SDS011;4679;47.966;7.958;2023-04-08T15:44:38;3.07;;;2.00;;
9280;SDS011;4679;47.966;7.958;2023-04-08T15:46:40;2.87;;;2.53;;
9280;SDS011;4679;47.966;7.958;2023-04-08T15:48:41;2.93;;;2.60;;
9280;SDS011;4679;47.966;7.958;2023-04-08T15:50:43;3.10;;;2.90;;
9280;SDS011;4679;47.966;7.958;2023-04-08T15:52:45;2.80;;;2.40;;
9280;SDS011;4679;47.966;7.958;2023-04-08T15:54:46;2.73;;;2.53;;
9280;SDS011;4679;47.966;7.958;2023-04-08T15:56:48;2.80;;;2.60;;
9280;SDS011;4679;47.966;7.958;2023-04-08T15:58:51;3.23;;;2.60;;
9280;SDS011;4679;47.966;7.958;2023-04-08T16:00:53;3.20;;;3.00;;
9280;SDS011;4679;47.966;7.958;2023-04-08T16:02:56;3.20;;;2.87;;
9280;SDS011;4679;47.966;7.958;2023-04-08T16:04:58;2.73;;;2.53;;
9280;SDS011;4679;47.966;7.958;2023-04-08T16:07:00;3.30;;;3.10;;
9280;SDS011;4679;47.966;7.958;2023-04-08T16:09:01;3.77;;;3.30;;
9280;SDS011;4679;47.966;7.958;2023-04-08T16:11:03;4.70;;;3.37;;
9280;SDS011;4679;47.966;7.958;2023-04-08T16:13:07;3.77;;;3.47;;
9280;SDS011;4679;47.966;7.958;2023-04-08T16:15:10;3.93;;;3.30;;
9280;SDS011;4679;47.966;7.958;2023-04-08T16:17:12;4.10;;;3.80;;
9280;SDS011;4679;47.966;7.958;2023-04-08T16:19:13;3.53;;;3.33;;
9280;SDS011;4679;47.966;7.958;2023-04-08T16:21:15;3.20;;;3.00;;
9280;SDS011;4679;47.966;7.958;2023-04-08T16:23:17;5.23;;;3.53;;
9280;SDS011;4679;47.966;7.958;2023-04-08T16:25:19;3.40;;;3.20;;
9280;SDS011;4679;47.966;7.958;2023-04-08T16:27:21;3.33;;;3.13;;
9280;SDS011;4679;47.966;7.958;2023-04-08T16:29:22;3.93;;;3.53;;
9280;SDS011;4679;47.966;7.958;2023-04-08T16:31:25;3.47;;;3.20;;
9280;SDS011;4679;47.966;7.958;2023-04-08T16:33:27;3.57;;;3.37;;
9280;SDS011;4679;47.966;7.958;2023-04-08T16:35:29;3.90;;;3.57;;
9280;SDS011;4679;47.966;7.958;2023-04-08T16:37:31;3.37;;;3.17;;
9280;SDS011;4679;47.966;7.958;2023-04-08T16:39:33;4.17;;;3.20;;
9280;SDS011;4679;47.966;7.958;2023-04-08T16:41:35;5.27;;;4.20;;
9280;SDS011;4679;47.966;7.958;2023-04-08T16:43:38;3.90;;;3.60;;
9280;SDS011;4679;47.966;7.958;2023-04-08T16:45:40;3.90;;;3.60;;
9280;SDS011;4679;47.966;7.958;2023-04-08T16:47:43;4.50;;;3.77;;
9280;SDS011;4679;47.966;7.958;2023-04-08T16:49:45;4.13;;;3.73;;
9280;SDS011;4679;47.966;7.958;2023-04-08T16:51:46;3.93;;;3.63;;
9280;SDS011;4679;47.966;7.958;2023-04-08T16:53:48;5.23;;;4.03;;
9280;SDS011;4679;47.966;7.958;2023-04-08T16:55:50;4.37;;;4.00;;
9280;SDS011;4679;47.966;7.958;2023-04-08T16:57:52;4.50;;;4.20;;
9280;SDS011;4679;47.966;7.958;2023-04-08T16:59:53;4.83;;;4.40;;
9280;SDS011;4679;47.966;7.958;2023-04-08T17:01:55;4.97;;;4.57;;
9280;SDS011;4679;47.966;7.958;2023-04-08T17:03:58;4.53;;;4.13;;
9280;SDS011;4679;47.966;7.958;2023-04-08T17:06:06;5.00;;;4.67;;
9280;SDS011;4679;47.966;7.958;2023-04-08T17:08:08;5.70;;;5.20;;
9280;SDS011;4679;47.966;7.958;2023-04-08T17:10:10;4.97;;;4.20;;
9280;SDS011;4679;47.966;7.958;2023-04-08T17:12:11;4.23;;;3.93;;
9280;SDS011;4679;47.966;7.958;2023-04-08T17:14:13;4.07;;;3.77;;
9280;SDS011;4679;47.966;7.958;2023-04-08T17:16:16;5.07;;;4.67;;
9280;SDS011;4679;47.966;7.958;2023-04-08T17:18:18;4.83;;;4.43;;
9280;SDS011;4679;47.966;7.958;2023-04-08T17:20:21;4.87;;;4.17;;
9280;SDS011;4679;47.966;7.958;2023-04-08T17:22:24;5.17;;;4.83;;
9280;SDS011;4679;47.966;7.958;2023-04-08T17:24:25;4.93;;;4.53;;
9280;SDS011;4679;47.966;7.958;2023-04-08T17:26:27;5.47;;;5.07;;
9280;SDS011;4679;47.966;7.958;2023-04-08T17:28:29;7.00;;;6.43;;
9280;SDS011;4679;47.966;7.958;2023-04-08T17:30:31;5.70;;;5.30;;
9280;SDS011;4679;47.966;7.958;2023-04-08T17:32:33;7.60;;;5.50;;
9280;SDS011;4679;47.966;7.958;2023-04-08T17:34:35;5.00;;;4.70;;
9280;SDS011;4679;47.966;7.958;2023-04-08T17:36:38;4.57;;;4.17;;
9280;SDS011;4679;47.966;7.958;2023-04-08T17:38:40;6.10;;;5.60;;
9280;SDS011;4679;47.966;7.958;2023-04-08T17:40:41;7.50;;;6.20;;
9280;SDS011;4679;47.966;7.958;2023-04-08T17:42:43;7.07;;;6.47;;
9280;SDS011;4679;47.966;7.958;2023-04-08T17:44:45;7.10;;;6.40;;
9280;SDS011;4679;47.966;7.958;2023-04-08T17:46:47;6.00;;;5.50;;
9280;SDS011;4679;47.966;7.958;2023-04-08T17:48:49;5.77;;;5.20;;
9280;SDS011;4679;47.966;7.958;2023-04-08T17:50:57;5.57;;;5.07;;
9280;SDS011;4679;47.966;7.958;2023-04-08T17:53:01;4.67;;;4.27;;
9280;SDS011;4679;47.966;7.958;2023-04-08T17:55:03;4.80;;;4.40;;
9280;SDS011;4679;47.966;7.958;2023-04-08T17:57:05;8.17;;;6.73;;
9280;SDS011;4679;47.966;7.958;2023-04-08T17:59:07;6.97;;;6.30;;
9280;SDS011;4679;47.966;7.958;2023-04-08T18:01:09;7.03;;;6.37;;
9280;SDS011;4679;47.966;7.958;2023-04-08T18:03:11;6.40;;;5.87;;